Time;durP1;ratioP1;P1;durP2;ratioP2;P2;SDS_P1;SDS_P2;PMS_P1;PMS_P2;Temp;Humidity;BMP_temperature;BMP_pressure;BME280_temperature;BME280_humidity;BME280_pressure;Samples;Min_cycle;Max_cycle;Signal;HPM_P1;HPM_P2
2023/01/15 02:12:26;;;;;;;5.20;2.03;;;;;;;5.26;96.61;97661.25;1596493;87;21168;-93
2023/01/15 02:15:07;;;;;;;5.78;2.27;;;;;;;5.26;96.52;97653.49;1624885;86;21102;-92
2023/01/15 02:17:59;;;;;;;5.25;2.80;;;;;;;5.25;96.57;97644.08;1635133;85;21075;-92
2023/01/15 02:20:36;;;;;;;9.63;3.33;;;;;;;5.26;96.45;97713.00;1650422;84;21004;-91
2023/01/15 02:23:33;;;;;;;4.10;1.95;;;;;;;5.30;96.34;97665.34;1652075;84;21065;-93
2023/01/15 02:26:28;;;;;;;7.87;2.40;;;;;;;5.33;96.48;97675.52;1632097;86;21076;-92
2023/01/15 02:29:01;;;;;;;5.15;2.45;;;;;;;5.37;96.35;97659.69;1590266;86;21329;-92
2023/01/15 02:31:33;;;;;;;6.87;2.08;;;;;;;5.38;96.29;97654.08;1638616;84;21023;-92
2023/01/15 02:37:06;;;;;;;7.78;2.37;;;;;;;5.41;96.29;97637.08;1609536;88;21153;-93
2023/01/15 02:39:37;;;;;;;4.90;2.67;;;;;;;5.43;96.04;97635.20;1630192;86;21863;-94
2023/01/15 02:42:08;;;;;;;3.72;2.35;;;;;;;5.46;95.96;97676.47;1636445;86;21075;-92
2023/01/15 02:44:41;;;;;;;9.20;3.10;;;;;;;5.49;96.05;97650.83;1675207;83;21092;-93
2023/01/15 02:47:13;;;;;;;8.38;2.35;;;;;;;5.48;95.98;97638.36;1653931;84;21020;-92
2023/01/15 02:49:41;;;;;;;4.40;2.27;;;;;;;5.50;95.98;97618.40;1684097;83;21087;-92
2023/01/15 02:52:16;;;;;;;3.02;1.62;;;;;;;5.50;95.98;97609.34;1690953;83;21013;-92
2023/01/15 02:54:46;;;;;;;6.92;3.20;;;;;;;5.50;96.01;97633.92;1694574;83;21111;-93
2023/01/15 02:57:15;;;;;;;4.67;2.58;;;;;;;5.44;95.96;97616.19;1692076;82;21087;-92
2023/01/15 02:59:46;;;;;;;5.50;1.90;;;;;;;5.29;95.97;97596.38;1694566;83;21121;-91
2023/01/15 03:02:25;;;;;;;4.28;2.12;;;;;;;5.10;96.43;97603.95;1700707;83;21165;-92
2023/01/15 03:05:00;;;;;;;4.47;1.82;;;;;;;4.87;97.25;97590.23;1689947;83;21138;-91
2023/01/15 03:07:56;;;;;;;3.92;1.87;;;;;;;4.74;98.13;97576.37;1684261;83;21066;-92
2023/01/15 03:10:47;;;;;;;;;;;;;;;4.61;98.65;97577.05;1718631;81;21267;-92
2023/01/15 03:13:37;;;;;;;7.33;2.62;;;;;;;4.50;99.28;97571.67;1702537;83;20554;-93
2023/01/15 03:16:33;;;;;;;5.37;1.98;;;;;;;4.50;100.00;97575.55;1690641;81;21125;-94
2023/01/15 03:19:24;;;;;;;8.13;2.30;;;;;;;4.48;100.00;97583.84;1693623;83;21624;-93
2023/01/15 03:22:18;;;;;;;3.45;1.75;;;;;;;4.47;100.00;97602.86;1696528;82;21489;-94
2023/01/15 03:25:05;;;;;;;3.70;2.40;;;;;;;4.47;100.00;97593.81;1678560;82;21022;-91
2023/01/15 03:27:35;;;;;;;6.75;2.15;;;;;;;4.46;100.00;97603.78;1699742;83;21552;-92
2023/01/15 03:30:09;;;;;;;3.17;1.95;;;;;;;4.46;100.00;97585.70;1715585;81;21064;-93
2023/01/15 03:32:35;;;;;;;4.28;1.82;;;;;;;4.46;100.00;97590.86;1684080;81;21632;-93
2023/01/15 03:35:05;;;;;;;6.00;2.30;;;;;;;4.46;100.00;97605.08;1705807;81;21067;-91
2023/01/15 03:37:32;;;;;;;1.90;1.50;;;;;;;4.46;100.00;97632.21;1699066;83;21157;-91
2023/01/15 03:40:00;;;;;;;11.35;2.55;;;;;;;4.49;100.00;97628.16;1677195;83;21065;-92
2023/01/15 03:43:39;;;;;;;5.00;1.85;;;;;;;4.48;100.00;97601.92;1705605;83;21621;-91
2023/01/15 03:45:29;;;;;;;2.58;1.85;;;;;;;4.50;100.00;97613.02;1724648;81;21038;-92
2023/01/15 03:48:29;;;;;;;3.77;1.77;;;;;;;4.52;100.00;97602.14;1717390;81;21099;-91
2023/01/15 03:51:26;;;;;;;3.58;1.77;;;;;;;4.54;100.00;97583.95;1689919;83;20970;-91
2023/01/15 03:53:57;;;;;;;1.97;1.60;;;;;;;4.53;100.00;97592.16;1707965;81;21026;-93
2023/01/15 03:56:31;;;;;;;1.75;1.35;;;;;;;4.53;100.00;97587.00;1704902;82;21088;-91
2023/01/15 03:59:23;;;;;;;3.20;1.55;;;;;;;4.53;100.00;97561.16;1690746;83;21577;-92
2023/01/15 04:01:54;;;;;;;1.87;1.35;;;;;;;4.56;100.00;97577.77;1695283;82;21128;-91
2023/01/15 04:04:22;;;;;;;4.45;1.42;;;;;;;4.57;100.00;97566.53;1686156;83;21019;-92
2023/01/15 04:06:49;;;;;;;1.90;1.30;;;;;;;4.58;100.00;97570.77;1697405;83;21078;-91
2023/01/15 04:09:18;;;;;;;2.20;1.45;;;;;;;4.59;100.00;97565.96;1692938;83;21060;-90
2023/01/15 04:11:46;;;;;;;2.40;1.40;;;;;;;4.60;100.00;97556.02;1695682;83;21111;-90
2023/01/15 04:14:13;;;;;;;1.40;1.22;;;;;;;4.60;100.00;97550.84;1699593;83;21082;-90
2023/01/15 04:16:41;;;;;;;1.70;0.95;;;;;;;4.62;100.00;97563.23;1694330;83;21746;-91
2023/01/15 04:19:10;;;;;;;7.33;1.22;;;;;;;4.64;100.00;97565.25;1696739;83;21147;-91
2023/01/15 04:21:36;;;;;;;2.33;1.20;;;;;;;4.66;100.00;97567.29;1691589;83;21071;-91
2023/01/15 04:24:03;;;;;;;3.77;1.50;;;;;;;4.69;100.00;97612.81;1699091;83;21050;-91
2023/01/15 04:26:30;;;;;;;0.60;0.60;;;;;;;4.68;100.00;97555.58;1690731;82;21085;-90
2023/01/15 04:28:57;;;;;;;1.20;0.90;;;;;;;4.71;100.00;97552.35;1716473;81;21104;-91
2023/01/15 04:31:23;;;;;;;1.90;1.07;;;;;;;4.74;100.00;97571.20;1713940;81;21128;-93
2023/01/15 04:33:50;;;;;;;3.30;1.30;;;;;;;4.75;100.00;97564.63;1711050;81;21087;-91
2023/01/15 04:36:16;;;;;;;1.53;0.97;;;;;;;4.77;100.00;97565.84;1703637;83;21015;-90
2023/01/15 04:38:43;;;;;;;1.30;0.98;;;;;;;4.79;100.00;97566.56;1684090;81;21038;-90
2023/01/15 04:44:07;;;;;;;1.80;0.93;;;;;;;4.82;100.00;97537.97;1697248;83;21096;-91
2023/01/15 04:46:46;;;;;;;1.67;1.00;;;;;;;4.83;100.00;97529.28;1697354;83;21049;-91
2023/01/15 04:49:16;;;;;;;4.47;1.20;;;;;;;4.85;100.00;97527.45;1695252;82;21476;-91
2023/01/15 04:51:46;;;;;;;4.70;1.20;;;;;;;4.88;100.00;97516.92;1701788;82;21552;-91
2023/01/15 04:54:16;;;;;;;0.93;0.80;;;;;;;4.90;100.00;97518.94;1692672;83;21141;-91
2023/01/15 04:56:49;;;;;;;1.32;0.80;;;;;;;4.92;100.00;97520.98;1695785;83;21077;-92
2023/01/15 04:59:21;;;;;;;1.92;1.12;;;;;;;4.94;100.00;97508.80;1698978;82;21747;-92
2023/01/15 05:01:48;;;;;;;1.22;0.85;;;;;;;4.97;100.00;97513.78;1697192;82;21537;-91
2023/01/15 05:04:15;;;;;;;1.63;1.33;;;;;;;5.01;100.00;97525.59;1704298;83;21099;-93
2023/01/15 05:06:44;;;;;;;1.17;0.90;;;;;;;5.03;100.00;97525.05;1689399;83;21505;-92
2023/01/15 05:09:10;;;;;;;2.52;1.30;;;;;;;5.06;100.00;97520.98;1684181;83;21093;-94
2023/01/15 05:11:43;;;;;;;1.13;1.00;;;;;;;5.07;100.00;97519.22;1695836;83;22576;-91
2023/01/15 05:14:12;;;;;;;0.82;0.70;;;;;;;5.08;100.00;97529.48;1688073;83;21098;-92
2023/01/15 05:16:38;;;;;;;1.07;0.70;;;;;;;5.11;100.00;97531.06;1685760;82;21038;-92
2023/01/15 05:19:06;;;;;;;1.20;0.98;;;;;;;5.13;100.00;97523.58;1685858;83;21125;-90
2023/01/15 05:21:40;;;;;;;0.98;0.60;;;;;;;5.15;100.00;97509.25;1676143;83;21019;-92
2023/01/15 05:24:15;;;;;;;2.05;1.25;;;;;;;5.18;100.00;97518.58;1697070;83;21105;-91
2023/01/15 05:26:43;;;;;;;1.67;1.20;;;;;;;5.19;100.00;97517.67;1673671;83;21635;-91
2023/01/15 05:29:14;;;;;;;1.85;0.95;;;;;;;5.21;100.00;97528.73;1697615;83;21003;-92
2023/01/15 05:31:43;;;;;;;0.90;0.62;;;;;;;5.22;100.00;97521.36;1697271;83;21062;-91
2023/01/15 05:34:10;;;;;;;1.90;0.75;;;;;;;5.23;100.00;97528.19;1698817;83;21094;-92
2023/01/15 05:36:37;;;;;;;1.87;0.90;;;;;;;5.25;100.00;97501.77;1701390;81;21161;-91
2023/01/15 05:39:04;;;;;;;1.17;0.98;;;;;;;5.25;100.00;97506.95;1703834;83;21055;-91
2023/01/15 05:41:49;;;;;;;1.25;0.70;;;;;;;5.25;100.00;97517.30;1696356;83;21518;-92
2023/01/15 05:44:28;;;;;;;2.08;0.90;;;;;;;5.27;100.00;97536.16;1699293;82;21104;-90
2023/01/15 05:47:01;;;;;;;3.00;0.88;;;;;;;5.29;100.00;97527.81;1709263;83;21058;-90
2023/01/15 05:49:30;;;;;;;1.17;0.80;;;;;;;5.29;100.00;97529.11;1692342;83;21546;-90
2023/01/15 05:51:59;;;;;;;0.85;0.70;;;;;;;5.30;100.00;97516.09;1690269;83;21087;-92
2023/01/15 05:54:31;;;;;;;1.10;1.00;;;;;;;5.31;100.00;97510.45;1680065;84;21101;-91
2023/01/15 05:57:00;;;;;;;0.98;0.90;;;;;;;5.31;100.00;97495.75;1697943;82;20997;-91
2023/01/15 05:59:29;;;;;;;2.25;0.88;;;;;;;5.33;100.00;97499.55;1724093;80;21069;-92
2023/01/15 06:01:59;;;;;;;2.05;0.75;;;;;;;5.34;100.00;97506.38;1722798;81;21171;-92
2023/01/15 06:04:26;;;;;;;1.40;0.80;;;;;;;5.35;100.00;97510.64;1707887;81;21153;-91
2023/01/15 06:06:54;;;;;;;0.98;0.78;;;;;;;5.35;100.00;97505.47;1703831;81;21150;-91
2023/01/15 06:09:42;;;;;;;1.00;0.90;;;;;;;5.36;100.00;97513.12;1724430;81;21107;-92
2023/01/15 06:12:15;;;;;;;0.70;0.60;;;;;;;5.37;100.00;97501.01;1710046;81;21115;-91
2023/01/15 06:14:47;;;;;;;2.33;1.00;;;;;;;5.39;100.00;97491.41;1718999;81;21171;-96
2023/01/15 06:17:18;;;;;;;0.60;0.50;;;;;;;5.40;100.00;97504.70;1699498;82;21070;-92
2023/01/15 06:19:45;;;;;;;1.02;0.60;;;;;;;5.42;100.00;97532.62;1701570;82;21125;-92
2023/01/15 06:22:12;;;;;;;1.17;0.60;;;;;;;5.42;100.00;97498.97;1716014;80;21537;-93
2023/01/15 06:24:38;;;;;;;0.73;0.50;;;;;;;5.42;100.00;97496.38;1719234;81;21154;-92
2023/01/15 06:27:05;;;;;;;0.60;0.55;;;;;;;5.42;100.00;97498.97;1710610;82;21149;-91
2023/01/15 06:29:32;;;;;;;0.47;0.42;;;;;;;5.42;100.00;97488.62;1713088;83;21184;-93
2023/01/15 06:31:59;;;;;;;2.37;0.50;;;;;;;5.43;100.00;97496.74;1711251;83;21216;-90
2023/01/15 06:34:26;;;;;;;0.53;0.42;;;;;;;5.43;100.00;97516.16;1736560;81;21010;-91
2023/01/15 06:36:54;;;;;;;0.60;0.53;;;;;;;5.42;100.00;97498.97;1730609;81;21069;-91
2023/01/15 06:39:25;;;;;;;0.78;0.45;;;;;;;5.41;100.00;97503.79;1713148;82;21581;-91
2023/01/15 06:47:21;;;;;;;0.82;0.53;;;;;;;5.48;100.00;97503.77;1702469;82;21107;-92
2023/01/15 06:49:55;;;;;;;0.90;0.60;;;;;;;5.49;100.00;97513.21;1689700;82;21084;-92
2023/01/15 06:52:29;;;;;;;0.95;0.78;;;;;;;5.51;100.00;97505.34;1696266;82;21051;-92
2023/01/15 06:54:58;;;;;;;1.37;0.78;;;;;;;5.52;100.00;97515.61;1710490;83;21097;-92
2023/01/15 06:57:24;;;;;;;0.60;0.60;;;;;;;5.58;100.00;97510.05;1700749;83;21629;-91
2023/01/15 06:59:51;;;;;;;0.50;0.47;;;;;;;5.60;100.00;97523.73;1700585;83;21015;-93
2023/01/15 07:02:18;;;;;;;0.40;0.40;;;;;;;5.63;100.00;97524.45;1693911;83;21062;-92
2023/01/15 07:04:46;;;;;;;1.82;0.80;;;;;;;5.69;100.00;97530.56;1700006;83;21004;-92
2023/01/15 07:07:17;;;;;;;1.55;0.60;;;;;;;5.73;100.00;97550.14;1705961;83;21106;-93
2023/01/15 07:09:45;;;;;;;0.35;0.30;;;;;;;5.69;100.00;97586.23;1713118;81;21134;-92
2023/01/15 07:12:12;;;;;;;0.60;0.40;;;;;;;5.45;100.00;97560.89;1722840;81;21025;-92
2023/01/15 07:14:39;;;;;;;;;;;;;;;5.22;100.00;97568.77;1708597;81;21043;-93
2023/01/15 07:17:05;;;;;;;0.70;0.60;;;;;;;5.11;100.00;97583.63;1700871;82;20480;-93
2023/01/15 07:19:32;;;;;;;0.90;0.50;;;;;;;5.01;100.00;97577.32;1703317;83;21140;-92
2023/01/15 07:21:59;;;;;;;3.30;0.50;;;;;;;4.96;100.00;97582.39;1689859;84;21861;-91
2023/01/15 07:24:26;;;;;;;1.40;0.37;;;;;;;4.92;100.00;97598.55;1719216;82;21071;-92
2023/01/15 07:26:53;;;;;;;1.00;0.30;;;;;;;4.87;100.00;97599.28;1695962;82;21621;-91
2023/01/15 07:29:20;;;;;;;0.80;0.35;;;;;;;4.87;100.00;97595.40;1696073;82;22274;-93
2023/01/15 07:31:51;;;;;;;0.82;0.40;;;;;;;4.86;100.00;97591.16;1705778;81;21040;-92
2023/01/15 07:34:19;;;;;;;3.00;0.60;;;;;;;4.86;100.00;97596.33;1694317;83;21573;-93
2023/01/15 07:36:48;;;;;;;1.80;0.82;;;;;;;4.83;100.00;97602.98;1690901;82;21133;-93
2023/01/15 07:39:15;;;;;;;1.05;0.40;;;;;;;4.82;100.00;97600.03;1722268;80;21048;-92
2023/01/15 07:50:14;;;;;;;2.20;1.10;;;;;;;4.78;100.00;97611.45;1727441;80;21155;-92
2023/01/15 07:52:55;;;;;;;7.28;2.72;;;;;;;4.70;100.00;97615.33;1718174;81;21138;-94
2023/01/15 07:55:29;;;;;;;5.45;2.02;;;;;;;4.64;100.00;97615.65;1693511;82;21063;-94
2023/01/15 07:58:14;;;;;;;4.42;2.00;;;;;;;4.54;100.00;97614.53;1676346;83;21058;-96
2023/01/15 08:00:44;;;;;;;3.12;1.50;;;;;;;4.52;100.00;97624.11;1669296;82;21062;-94
2023/01/15 08:03:22;;;;;;;3.60;1.32;;;;;;;4.49;100.00;97624.28;1719937;82;21084;-95
2023/01/15 08:05:52;;;;;;;1.92;0.95;;;;;;;4.48;100.00;97622.59;1711174;82;21116;-93
2023/01/15 08:08:19;;;;;;;0.80;0.60;;;;;;;4.43;100.00;97627.22;1712826;81;21132;-93
2023/01/15 08:16:25;;;;;;;1.55;0.78;;;;;;;4.44;100.00;97634.04;1700511;83;21145;-93
2023/01/15 08:18:52;;;;;;;6.00;1.60;;;;;;;4.45;100.00;97633.11;1702317;83;21607;-92
2023/01/15 08:21:29;;;;;;;3.80;1.67;;;;;;;4.45;100.00;97638.28;1699556;82;21105;-92
2023/01/15 08:23:59;;;;;;;1.77;1.10;;;;;;;4.38;100.00;97647.30;1709952;82;21705;-95
2023/01/15 08:26:29;;;;;;;2.10;0.80;;;;;;;4.26;100.00;97647.06;1712794;80;21047;-92
2023/01/15 08:29:10;;;;;;;1.42;0.70;;;;;;;4.15;100.00;97644.23;1707550;80;21488;-92
2023/01/15 08:31:40;;;;;;;1.62;1.00;;;;;;;4.11;100.00;97651.75;1721467;80;21731;-92
2023/01/15 08:34:09;;;;;;;3.10;1.00;;;;;;;4.04;100.00;97663.34;1715533;80;22214;-92
2023/01/15 08:36:37;;;;;;;1.07;0.70;;;;;;;4.07;100.00;97659.30;1688040;82;21601;-92
2023/01/15 08:39:13;;;;;;;5.12;1.20;;;;;;;4.14;100.00;97660.63;1703049;81;21137;-91
2023/01/15 08:41:39;;;;;;;4.08;0.82;;;;;;;4.08;100.00;97650.62;1713686;82;22200;-92
2023/01/15 08:44:20;;;;;;;1.37;0.72;;;;;;;4.06;100.00;97665.37;1687708;82;20971;-91
2023/01/15 08:46:47;;;;;;;1.37;0.70;;;;;;;4.02;100.00;97669.05;1689238;82;21043;-92
2023/01/15 08:49:23;;;;;;;1.37;0.60;;;;;;;3.96;100.00;97668.09;1703945;81;21059;-93
2023/01/15 08:51:51;;;;;;;1.95;0.80;;;;;;;3.94;100.00;97666.03;1703920;83;21062;-94
2023/01/15 08:54:25;;;;;;;2.72;1.62;;;;;;;3.96;100.00;97659.05;1693874;81;21030;-92
2023/01/15 08:56:56;;;;;;;3.92;2.05;;;;;;;3.98;100.00;97655.94;1719704;81;21061;-93
2023/01/15 08:59:25;;;;;;;6.28;2.05;;;;;;;4.02;100.00;97663.88;1714773;81;21642;-91
2023/01/15 09:01:52;;;;;;;3.80;2.00;;;;;;;4.00;100.00;97651.50;1711782;80;21115;-93
2023/01/15 09:04:20;;;;;;;4.42;2.58;;;;;;;4.00;100.00;97669.58;1700272;82;21067;-92
2023/01/15 09:06:50;;;;;;;2.87;1.82;;;;;;;4.02;100.00;97669.88;1724029;82;21095;-92
2023/01/15 09:09:20;;;;;;;11.20;3.33;;;;;;;4.00;100.00;97673.45;1711826;81;21193;-93
2023/01/15 09:11:48;;;;;;;5.15;2.65;;;;;;;3.99;100.00;97674.38;1727801;82;21067;-92
2023/01/15 09:14:17;;;;;;;3.50;1.57;;;;;;;4.02;100.00;97662.59;1727941;81;21062;-92
2023/01/15 09:16:43;;;;;;;7.10;2.92;;;;;;;4.03;100.00;97662.95;1693001;82;21157;-92
2023/01/15 09:19:12;;;;;;;4.78;1.98;;;;;;;4.06;100.00;97657.62;1713640;81;21519;-92
2023/01/15 09:21:38;;;;;;;4.12;2.22;;;;;;;4.11;100.00;97658.21;1704776;81;21082;-92
2023/01/15 09:24:08;;;;;;;7.70;3.52;;;;;;;4.10;100.00;97666.06;1697251;83;21050;-92
2023/01/15 09:26:42;;;;;;;4.47;1.87;;;;;;;4.07;100.00;97667.05;1693505;83;21139;-92
2023/01/15 09:29:07;;;;;;;3.10;1.47;;;;;;;4.07;100.00;97681.72;1698256;82;21030;-93
2023/01/15 09:31:37;;;;;;;2.87;1.35;;;;;;;4.02;100.00;97681.95;1681037;83;21045;-91
2023/01/15 09:34:03;;;;;;;2.42;1.40;;;;;;;4.02;100.00;97683.25;1694325;83;21157;-93
2023/01/15 09:36:36;;;;;;;3.72;1.40;;;;;;;3.95;100.00;97675.44;1699709;82;21061;-92
2023/01/15 09:39:04;;;;;;;6.20;3.52;;;;;;;3.97;100.00;97672.33;1704105;82;21339;-93
2023/01/15 09:45:06;;;;;;;7.60;2.00;;;;;;;4.03;100.00;97665.53;1705736;82;21177;-92
2023/01/15 09:47:59;;;;;;;3.95;1.25;;;;;;;3.93;100.00;97666.96;1699774;82;21151;-92
2023/01/15 14:09:46;;;;;;;;;;;;;;;;;;;;;
2023/01/15 14:16:27;;;;;;;;;;;;;;;;;;;;;
2023/01/15 19:37:38;;;;;;;3.47;1.57;;;;;;;2.94;100.00;97708.95;1594350;87;21064;-95
2023/01/15 20:19:50;;;;;;;1.27;0.90;;;;;;;3.05;100.00;97738.92;1430251;97;21240;-93
2023/01/15 20:22:24;;;;;;;3.08;1.25;;;;;;;3.13;100.00;97725.20;1485612;95;21142;-94
2023/01/15 20:25:13;;;;;;;3.20;1.27;;;;;;;3.18;100.00;97724.98;1441828;95;21676;-93
2023/01/15 20:27:59;;;;;;;;;;;;;;;;;;;;;
2023/01/15 20:30:21;;;;;;;1.82;1.00;;;;;;;3.24;100.00;97725.97;1454422;96;21072;-94
2023/01/15 20:32:53;;;;;;;3.70;1.30;;;;;;;3.29;100.00;97726.12;1454297;95;21047;-94
2023/01/15 20:35:26;;;;;;;2.92;1.12;;;;;;;3.32;100.00;97707.91;1474216;93;21132;-94
2023/01/15 20:38:17;;;;;;;5.35;1.65;;;;;;;3.31;99.91;97721.73;1422747;96;21068;-94
2023/01/15 20:40:55;;;;;;;4.17;1.17;;;;;;;3.33;99.82;97712.17;1481518;94;21105;-93
2023/01/15 20:46:13;;;;;;;2.92;1.00;;;;;;;3.32;99.50;97707.91;1466062;95;21680;-92
2023/01/15 20:51:36;;;;;;;3.30;1.50;;;;;;;3.26;99.34;97710.80;1457207;96;22009;-93
2023/01/15 20:54:08;;;;;;;1.90;1.55;;;;;;;3.23;99.00;97716.11;1470910;94;21171;-94
2023/01/15 20:56:36;;;;;;;1.82;0.90;;;;;;;3.19;99.18;97714.58;1616712;84;21073;-94
2023/01/15 20:59:06;;;;;;;2.30;1.30;;;;;;;3.16;98.70;97707.00;1625685;84;21541;-94
2023/01/15 21:01:33;;;;;;;2.47;1.10;;;;;;;3.15;98.90;97702.76;1615739;85;21005;-94
2023/01/15 21:04:00;;;;;;;5.43;0.97;;;;;;;3.14;98.74;97721.73;1662783;81;20975;-94
2023/01/15 21:06:28;;;;;;;4.13;1.53;;;;;;;3.12;98.53;97709.36;1735464;79;20931;-95
2023/01/15 21:08:55;;;;;;;3.20;1.20;;;;;;;3.11;98.30;97706.41;1746159;79;21066;-94
2023/01/15 21:11:24;;;;;;;3.10;0.90;;;;;;;3.09;98.50;97733.55;1701720;81;21021;-93
2023/01/15 21:13:51;;;;;;;2.70;1.20;;;;;;;3.08;98.31;97722.01;1727148;80;21031;-93
2023/01/15 21:16:18;;;;;;;1.80;0.93;;;;;;;3.05;98.17;97704.11;1734590;80;21850;-94
2023/01/15 21:18:46;;;;;;;3.72;1.30;;;;;;;3.02;98.21;97704.27;1728489;80;21012;-93
2023/01/15 21:21:26;;;;;;;2.05;0.80;;;;;;;2.98;98.10;97695.03;1744736;79;20939;-94
2023/01/15 21:24:06;;;;;;;5.75;1.10;;;;;;;2.96;97.99;97695.55;1713175;81;21022;-93
2023/01/15 21:26:33;;;;;;;1.15;0.80;;;;;;;2.96;97.95;97695.55;1739558;79;21026;-93
2023/01/15 21:29:00;;;;;;;3.58;1.10;;;;;;;3.00;97.96;97695.80;1735521;79;21544;-93
2023/01/15 21:31:27;;;;;;;1.80;1.07;;;;;;;3.02;97.75;97719.73;1735204;79;21025;-93
2023/01/15 21:33:55;;;;;;;3.13;1.30;;;;;;;3.03;97.53;97703.38;1677260;83;21050;-92
2023/01/15 21:36:48;;;;;;;5.20;1.05;;;;;;;3.02;97.40;97691.37;1642864;83;21038;-93
2023/01/15 21:39:37;;;;;;;1.45;0.68;;;;;;;3.00;97.39;97698.38;1605698;87;21101;-93
2023/01/15 21:44:53;;;;;;;3.40;1.10;;;;;;;2.98;97.11;97697.61;1641281;85;21079;-93
2023/01/15 21:50:41;;;;;;;3.08;1.20;;;;;;;2.97;96.92;97695.91;1627041;85;21167;-93
2023/01/15 21:53:08;;;;;;;3.25;1.22;;;;;;;2.91;96.53;97700.48;1603961;87;21065;-94
2023/01/15 21:55:51;;;;;;;3.52;0.98;;;;;;;2.91;96.49;97697.91;1616618;86;21054;-92
2023/01/15 21:58:29;;;;;;;2.33;0.88;;;;;;;2.90;96.35;97691.06;1636748;85;21601;-92
2023/01/15 22:00:59;;;;;;;4.00;1.25;;;;;;;2.90;96.33;97701.38;1615849;87;21036;-93
2023/01/15 22:03:26;;;;;;;1.87;1.05;;;;;;;2.96;96.46;97682.66;1622280;84;21025;-93
2023/01/15 22:05:52;;;;;;;0.98;0.90;;;;;;;2.96;96.32;97692.97;1614359;85;21095;-93
2023/01/15 22:08:19;;;;;;;2.10;1.03;;;;;;;2.96;96.40;97701.99;1610073;86;21100;-93
2023/01/15 22:10:48;;;;;;;2.00;0.53;;;;;;;3.01;96.30;97689.72;1681303;82;21096;-92
2023/01/15 22:13:15;;;;;;;1.87;0.50;;;;;;;3.04;96.14;97714.89;1673551;81;21074;-92
2023/01/15 22:15:42;;;;;;;2.30;0.90;;;;;;;3.15;95.96;97710.50;1705842;81;21074;-93
2023/01/15 22:18:09;;;;;;;4.33;1.00;;;;;;;3.23;95.66;97721.27;1701670;81;21060;-92
2023/01/15 22:20:35;;;;;;;3.25;1.05;;;;;;;3.31;95.77;97713.98;1702266;81;20995;-93
2023/01/15 22:23:02;;;;;;;2.13;0.93;;;;;;;3.33;95.74;97693.27;1699510;81;21004;-94
2023/01/15 22:25:31;;;;;;;3.17;0.82;;;;;;;3.38;95.67;97695.62;1696858;81;20998;-94
2023/01/15 22:27:59;;;;;;;1.85;0.80;;;;;;;3.38;95.44;97702.06;1717962;81;20976;-93
2023/01/15 22:30:26;;;;;;;2.85;1.25;;;;;;;3.33;96.00;97694.13;1679494;83;21592;-94
2023/01/15 22:32:52;;;;;;;2.67;1.25;;;;;;;3.36;96.11;97687.52;1685693;82;20962;-93
2023/01/15 22:35:21;;;;;;;1.63;0.80;;;;;;;3.47;95.67;97720.95;1693637;82;21063;-93
2023/01/15 22:37:50;;;;;;;2.85;1.00;;;;;;;3.53;95.66;97700.02;1699623;82;21039;-93
2023/01/15 22:40:37;;;;;;;4.00;1.00;;;;;;;3.59;95.28;97699.70;1653898;84;21466;-94
2023/01/15 22:43:06;;;;;;;2.00;1.30;;;;;;;3.59;95.34;97689.38;1680112;82;21016;-93
2023/01/15 22:45:32;;;;;;;1.00;0.62;;;;;;;3.60;95.30;97682.00;1702303;81;21079;-93
2023/01/15 22:47:59;;;;;;;2.12;1.10;;;;;;;3.61;94.78;97687.53;1666706;83;21149;-94
2023/01/15 22:50:28;;;;;;;2.15;0.98;;;;;;;3.60;94.81;97694.91;1665433;83;21054;-93
2023/01/15 22:52:55;;;;;;;2.62;0.90;;;;;;;3.62;94.65;97690.50;1727674;81;21529;-93
2023/01/15 22:55:35;;;;;;;1.35;0.57;;;;;;;3.63;94.53;97699.08;1698691;82;21527;-94
2023/01/15 22:58:07;;;;;;;0.98;0.68;;;;;;;3.64;94.71;97702.88;1716751;81;21645;-94
2023/01/15 23:00:33;;;;;;;2.25;1.07;;;;;;;3.58;94.36;97710.91;1732946;81;21763;-94
2023/01/15 23:03:20;;;;;;;2.20;1.07;;;;;;;3.66;94.35;97701.03;1676067;83;21548;-93
2023/01/15 23:06:25;;;;;;;2.47;0.70;;;;;;;3.67;94.02;97693.69;1702704;82;20987;-93
2023/01/15 23:08:58;;;;;;;0.65;0.47;;;;;;;3.65;94.20;97694.22;1659925;84;21048;-92
2023/01/15 23:11:25;;;;;;;2.65;0.82;;;;;;;3.63;93.49;97692.63;1696182;82;21486;-93
2023/01/15 23:14:02;;;;;;;3.52;1.02;;;;;;;3.62;93.59;97703.41;1669382;83;20998;-93
2023/01/15 23:16:29;;;;;;;2.08;1.00;;;;;;;3.62;93.63;97678.89;1632843;84;21151;-93
2023/01/15 23:18:55;;;;;;;3.47;1.02;;;;;;;3.62;93.58;97681.47;1677552;84;20996;-94
2023/01/15 23:21:24;;;;;;;2.03;1.07;;;;;;;3.60;93.12;97682.00;1672847;83;21027;-94
2023/01/15 23:23:59;;;;;;;4.50;1.00;;;;;;;3.58;93.42;97670.91;1669298;83;21269;-93
2023/01/15 23:26:29;;;;;;;4.35;1.40;;;;;;;3.57;93.08;97683.45;1639903;85;20967;-93
2023/01/15 23:28:57;;;;;;;3.02;1.47;;;;;;;3.55;93.09;97681.39;1680166;84;21000;-94
2023/01/15 23:31:40;;;;;;;4.12;1.32;;;;;;;3.54;92.79;97683.61;1645397;84;21021;-93
2023/01/15 23:34:00;;;;;;;3.70;1.50;;;;;;;3.54;92.94;97675.87;1635835;85;21089;-94
2023/01/15 23:59:15;;;;;;;;;;;;;;;3.56;92.27;97684.37;1401435;99;21165;-93
